createdAt,value
2019-05-30T00:00:57.867Z,53.72
2019-05-30T00:15:50.895Z,52.99
2019-05-30T00:30:50.994Z,53.12
2019-05-30T00:45:50.844Z,53.19
2019-05-30T01:00:50.954Z,53.11
2019-05-30T01:15:54.174Z,53.16
2019-05-30T01:31:02.965Z,53.14
2019-05-30T01:45:51.125Z,53.33
2019-05-30T02:00:51.121Z,53.66
2019-05-30T02:15:51.565Z,54.29
2019-05-30T02:30:52.964Z,52.98
2019-05-30T02:45:51.433Z,54.09
2019-05-30T03:00:54.407Z,54.88
2019-05-30T03:15:56.822Z,54.83
2019-05-30T03:30:50.742Z,52.67
2019-05-30T03:45:51.019Z,51.13
2019-05-30T04:15:51.156Z,42.09
2019-05-30T04:31:00.090Z,38.83
2019-05-30T04:45:54.479Z,36.96
2019-05-30T05:00:50.907Z,35.13
2019-05-30T05:15:53.292Z,33.45
2019-05-30T05:30:51.371Z,32.62
2019-05-30T05:45:52.522Z,31.11
2019-05-30T06:00:54.446Z,29.67
2019-05-30T06:15:55.593Z,29.10
2019-05-30T06:30:50.683Z,28.14
2019-05-30T06:45:53.531Z,27.30
2019-05-30T07:00:50.654Z,27.34
2019-05-30T07:15:50.923Z,28.35
2019-05-30T07:30:50.829Z,27.82
2019-05-30T07:45:58.254Z,28.52
2019-05-30T08:00:56.938Z,29.02
2019-05-30T08:15:51.242Z,29.62
2019-05-30T08:30:51.618Z,30.12
2019-05-30T08:45:52.154Z,27.09
2019-05-30T09:00:57.131Z,27.57
2019-05-30T09:15:51.554Z,29.13
2019-05-30T09:30:51.510Z,29.05
2019-05-30T09:45:51.509Z,29.82
2019-05-30T10:00:52.305Z,29.49
2019-05-30T10:15:50.746Z,30.12
2019-05-30T10:30:57.778Z,30.23
2019-05-30T10:45:51.604Z,32.17
2019-05-30T11:00:58.193Z,32.66
2019-05-30T11:15:51.660Z,32.67
2019-05-30T11:30:52.790Z,33.91
2019-05-30T11:45:51.658Z,34.14
2019-05-30T12:00:52.945Z,34.41
2019-05-30T12:15:51.452Z,34.04
2019-05-30T12:30:56.871Z,33.55
2019-05-30T12:45:54.927Z,33.85
2019-05-30T13:00:51.298Z,34.65
2019-05-30T13:15:50.711Z,34.37
2019-05-30T13:30:50.750Z,34.29
2019-05-30T13:45:56.466Z,34.76
2019-05-30T14:00:50.602Z,34.73
2019-05-30T14:15:50.967Z,35.55
2019-05-30T14:30:53.949Z,36.06
2019-05-30T14:45:50.916Z,36.16
2019-05-30T15:00:54.578Z,37.40
2019-05-30T15:15:51.170Z,37.73
2019-05-30T15:30:53.162Z,38.24
2019-05-30T15:45:51.126Z,38.72
2019-05-30T16:00:57.178Z,39.60
2019-05-30T16:15:50.582Z,39.40
2019-05-30T16:30:52.512Z,40.46
2019-05-30T16:45:50.558Z,45.00
2019-05-30T17:00:50.769Z,43.17
2019-05-30T17:15:56.712Z,41.70
2019-05-30T17:30:50.905Z,42.85
2019-05-30T17:45:50.760Z,44.47
2019-05-30T18:00:50.696Z,44.62
2019-05-30T18:15:58.123Z,45.26
2019-05-30T18:30:51.071Z,46.01
2019-05-30T18:45:54.217Z,46.56
2019-05-30T19:01:00.098Z,46.82
2019-05-30T19:15:51.399Z,47.18
2019-05-30T19:30:51.488Z,47.64
2019-05-30T19:45:57.376Z,48.36
2019-05-30T20:00:58.490Z,49.10
2019-05-30T21:00:50.575Z,53.69
2019-05-30T21:15:50.549Z,53.15
2019-05-30T21:30:50.415Z,52.94
2019-05-30T21:45:50.480Z,53.69
2019-05-30T22:15:52.175Z,56.12
2019-05-30T22:30:51.246Z,56.96
2019-05-30T22:45:52.470Z,57.57
2019-05-30T23:00:57.205Z,57.99
2019-05-30T23:15:52.750Z,58.16
2019-05-30T23:30:51.877Z,58.40
2019-05-30T23:45:51.379Z,58.51
